»·PEaware :: N374ED KSEA-KYKM

N374ED :: KSEA-KYKM

FLIGHT INFORMATION

Flight Status: Arrived
Operator: Privately registered:
United States
More flights under this callsign
Pilot: Eric D. (9648)
Aircraft: BEECH AIRCRAFT BARON
(BE58)
More flights by this aircraft type
Origin: KSEA Seattle-Tacoma Intl
United States
Destination: KYKM Yakima Air Term/Mcallister
United States
More flights between these airports :: More routes between these airports
Route: +SEA7 SEA V298 YKM
File this flight plan on PilotEdge
Remarks:
Altitude:
(Current/Filed)
11,000ft
Speed:
(Current/Filed)
180kts
Departed: 30-Apr-20 02:10 PM
Arrived: 30-Apr-20 02:50 PM
Distance/Time
Traveled:
89nm/0:40
Distance/Time
To Go:
Arrived

Flight Plot

Page will automatically refresh every two minutes.


Map Options




Map Legend


Flown Route
Filed Route
Departure Airport
Arrival Airport
Navaid (VOR, NDB)
Fix

Horizontal Profiles

Position Reports

Time Latitude Longitude Heading Altitude Ground
Speed
30-Apr-20 13:45 47.464146 -122.303767 226 436ft 0kts
30-Apr-20 13:46 47.464146 -122.303767 226 436ft 0kts
30-Apr-20 13:48 47.464145 -122.303767 226 436ft 0kts
30-Apr-20 13:48 47.464146 -122.303767 226 436ft 0kts
30-Apr-20 13:49 47.464146 -122.303767 226 436ft 0kts
30-Apr-20 13:50 47.464146 -122.303767 226 436ft 0kts
30-Apr-20 13:51 47.464146 -122.303767 226 436ft 0kts
30-Apr-20 13:52 47.464146 -122.303767 226 436ft 0kts
30-Apr-20 13:53 47.464146 -122.303767 226 436ft 0kts
30-Apr-20 13:54 47.464146 -122.303767 226 436ft 0kts
30-Apr-20 13:55 47.464146 -122.303767 226 436ft 0kts
30-Apr-20 13:56 47.464146 -122.303767 226 436ft 0kts
30-Apr-20 13:57 47.464146 -122.303767 226 436ft 0kts
30-Apr-20 13:58 47.464146 -122.303767 226 436ft 0kts
30-Apr-20 13:59 47.464146 -122.303767 226 436ft 0kts
30-Apr-20 14:00 47.464146 -122.303767 226 436ft 0kts
30-Apr-20 14:01 47.464146 -122.303767 226 436ft 0kts
30-Apr-20 14:02 47.464146 -122.303767 226 436ft 0kts
30-Apr-20 14:03 47.464146 -122.303767 226 436ft 0kts
30-Apr-20 14:04 47.464146 -122.303767 226 436ft 0kts
30-Apr-20 14:05 47.464139 -122.303778 226 436ft 0kts
30-Apr-20 14:06 47.463900 -122.304242 252 436ft 6kts
30-Apr-20 14:07 47.463658 -122.306141 284 436ft 0kts
30-Apr-20 14:08 47.463751 -122.307084 262 436ft 10kts
30-Apr-20 14:09 47.445814 -122.307682 179 1216ft 106kts
30-Apr-20 14:10 47.414482 -122.304104 178 2567ft 115kts
30-Apr-20 14:11 47.377908 -122.300934 179 3015ft 159kts
30-Apr-20 14:12 47.342977 -122.270392 81 3288ft 185kts
30-Apr-20 14:13 47.357491 -122.199295 76 4281ft 178kts
30-Apr-20 14:14 47.372097 -122.130471 75 5275ft 173kts
30-Apr-20 14:15 47.382976 -122.062316 93 6280ft 167kts
30-Apr-20 14:16 47.371083 -121.998574 112 7268ft 159kts
30-Apr-20 14:17 47.357794 -121.937309 111 8257ft 155kts
30-Apr-20 14:18 47.344795 -121.877757 111 9245ft 150kts
30-Apr-20 14:19 47.332419 -121.821151 111 10178ft 147kts
30-Apr-20 14:20 47.319929 -121.764215 111 10998ft 148kts
30-Apr-20 14:21 47.305386 -121.698787 110 11022ft 185kts
30-Apr-20 14:22 47.289042 -121.624089 110 11019ft 194kts
30-Apr-20 14:23 47.273992 -121.555963 110 11054ft 193kts
30-Apr-20 14:24 47.259031 -121.488510 110 11120ft 193kts
30-Apr-20 14:25 47.244297 -121.424040 121 11110ft 193kts
30-Apr-20 14:26 47.203773 -121.367980 141 11092ft 190kts
30-Apr-20 14:27 47.163423 -121.314973 142 11068ft 191kts
30-Apr-20 14:28 47.124282 -121.263537 142 11046ft 191kts
30-Apr-20 14:29 47.083950 -121.210674 142 11024ft 191kts
30-Apr-20 14:30 47.044100 -121.158668 141 11017ft 192kts
30-Apr-20 14:31 47.003746 -121.105949 140 11018ft 195kts
30-Apr-20 14:32 46.962758 -121.052457 140 11018ft 198kts
30-Apr-20 14:33 46.921216 -120.998294 142 11019ft 200kts
30-Apr-20 14:34 46.879316 -120.943882 144 11019ft 198kts
30-Apr-20 14:35 46.837945 -120.888133 141 10514ft 211kts
30-Apr-20 14:36 46.795088 -120.827720 150 9516ft 213kts
30-Apr-20 14:37 46.743825 -120.793210 161 8518ft 198kts
30-Apr-20 14:38 46.693850 -120.760858 162 7527ft 195kts
30-Apr-20 14:39 46.645387 -120.729569 162 6502ft 183kts
30-Apr-20 14:40 46.599050 -120.699337 162 5501ft 181kts
30-Apr-20 14:41 46.554044 -120.669803 159 5007ft 164kts
30-Apr-20 14:42 46.533776 -120.611718 114 5002ft 151kts
30-Apr-20 14:43 46.519254 -120.552973 109 4328ft 150kts
30-Apr-20 14:44 46.510391 -120.496875 106 3690ft 136kts
30-Apr-20 14:45 46.530879 -120.465841 358 2783ft 110kts
30-Apr-20 14:46 46.552400 -120.479671 287 1807ft 90kts
30-Apr-20 14:47 46.560864 -120.512669 285 1384ft 82kts
30-Apr-20 14:48 46.568152 -120.542103 291 1070ft 51kts
30-Apr-20 14:49 46.570927 -120.549270 28 1084ft 0kts
30-Apr-20 14:50 46.570957 -120.548492 99 1083ft 8kts
30-Apr-20 14:51 46.571703 -120.548009 91 1083ft 0kts
30-Apr-20 14:52 46.571703 -120.548009 91 1083ft 0kts
30-Apr-20 14:53 46.571703 -120.548009 91 1083ft 0kts
30-Apr-20 14:54 46.571703 -120.548009 91 1083ft 0kts
30-Apr-20 14:55 46.571703 -120.548009 91 1083ft 0kts
30-Apr-20 14:56 46.571703 -120.548009 91 1083ft 0kts
30-Apr-20 14:57 46.571703 -120.548009 91 1083ft 0kts
30-Apr-20 14:58 46.571703 -120.548009 91 1083ft 0kts
30-Apr-20 14:59 46.571703 -120.548009 91 1083ft 0kts
30-Apr-20 15:00 46.571703 -120.548009 91 1083ft 0kts
30-Apr-20 15:01 46.571703 -120.548009 91 1083ft 0kts
30-Apr-20 15:02 46.571703 -120.548009 91 1083ft 0kts
30-Apr-20 15:03 46.571703 -120.548009 91 1083ft 0kts
30-Apr-20 15:04 46.571703 -120.548009 91 1083ft 0kts

Navigation Log

Ident Type
Flight plan parsing failed, navigation log unavailable